createdAt,value
2022-09-10T00:02:08.161Z,4.22
2022-09-10T00:04:35.411Z,4.85
2022-09-10T00:07:02.583Z,4.60
2022-09-10T00:09:29.789Z,7.32
2022-09-10T00:11:57.366Z,4.80
2022-09-10T00:14:24.915Z,4.57
2022-09-10T00:16:52.340Z,3.58
2022-09-10T00:19:20.110Z,3.45
2022-09-10T00:21:47.237Z,3.47
2022-09-10T00:24:14.396Z,3.65
2022-09-10T00:26:41.492Z,4.15
2022-09-10T00:29:10.459Z,3.97
2022-09-10T00:31:37.814Z,4.05
2022-09-10T00:34:05.945Z,3.88
2022-09-10T00:36:36.029Z,2.92
2022-09-10T00:39:06.020Z,3.20
2022-09-10T00:41:34.387Z,3.13
2022-09-10T00:44:02.722Z,2.58
2022-09-10T00:46:36.191Z,2.80
2022-09-10T00:49:06.196Z,2.72
2022-09-10T00:51:34.726Z,2.75
2022-09-10T00:54:03.122Z,2.85
2022-09-10T00:56:31.037Z,3.25
2022-09-10T00:58:58.449Z,3.78
2022-09-10T01:01:25.785Z,4.20
2022-09-10T01:03:53.654Z,4.97
2022-09-10T01:06:20.755Z,5.13
2022-09-10T01:08:47.887Z,5.25
2022-09-10T01:11:37.725Z,5.75
2022-09-10T01:14:25.661Z,5.60
2022-09-10T01:16:55.726Z,4.68
2022-09-10T01:19:36.271Z,5.88
2022-09-10T01:22:12.122Z,8.45
2022-09-10T01:24:45.171Z,5.95
2022-09-10T01:27:31.336Z,5.03
2022-09-10T01:30:06.100Z,5.85
2022-09-10T01:32:45.526Z,5.25
2022-09-10T01:35:17.844Z,4.45
2022-09-10T01:37:49.915Z,3.72
2022-09-10T01:40:18.047Z,4.47
2022-09-10T01:42:45.783Z,3.53
2022-09-10T01:45:14.243Z,2.97
2022-09-10T01:48:00.905Z,4.30
2022-09-10T01:50:47.089Z,3.17
2022-09-10T01:53:14.149Z,3.47
2022-09-10T01:55:45.369Z,5.07
2022-09-10T01:58:25.312Z,5.53
2022-09-10T02:00:56.265Z,5.82
2022-09-10T02:03:24.637Z,5.80
2022-09-10T02:05:53.929Z,5.68
2022-09-10T02:08:23.696Z,5.28
2022-09-10T02:10:55.412Z,5.22
2022-09-10T02:13:23.377Z,5.80
2022-09-10T02:15:52.285Z,4.30
2022-09-10T02:18:23.256Z,6.38
2022-09-10T02:20:51.378Z,4.90
2022-09-10T02:23:21.281Z,4.55
2022-09-10T02:25:49.806Z,3.78
2022-09-10T02:28:17.318Z,3.83
2022-09-10T02:30:44.611Z,3.97
2022-09-10T02:33:12.143Z,4.32
2022-09-10T02:35:39.483Z,3.63
2022-09-10T02:38:06.640Z,3.67
2022-09-10T02:40:33.701Z,3.30
2022-09-10T02:43:00.816Z,3.53
2022-09-10T02:45:27.951Z,3.67
2022-09-10T02:47:55.109Z,2.83
2022-09-10T02:50:24.390Z,2.88
2022-09-10T02:52:51.552Z,2.28
2022-09-10T02:55:18.954Z,3.10
2022-09-10T02:57:46.065Z,2.42
2022-09-10T03:00:13.300Z,3.33
2022-09-10T03:02:40.995Z,2.70
2022-09-10T03:05:08.419Z,2.70
2022-09-10T03:07:35.536Z,2.40
2022-09-10T03:10:02.735Z,2.50
2022-09-10T03:12:29.889Z,2.42
2022-09-10T03:14:58.438Z,2.60
2022-09-10T03:17:26.480Z,2.28
2022-09-10T03:19:53.533Z,2.00
2022-09-10T03:22:20.773Z,2.50
2022-09-10T03:24:48.082Z,2.22
2022-09-10T03:27:16.592Z,2.63
2022-09-10T03:29:44.364Z,2.10
2022-09-10T03:32:11.635Z,2.75
2022-09-10T03:34:40.099Z,2.28
2022-09-10T03:37:07.279Z,2.38
2022-09-10T03:39:34.584Z,2.90
2022-09-10T03:42:05.305Z,3.15
2022-09-10T03:44:33.552Z,3.50
2022-09-10T03:47:03.631Z,2.50
2022-09-10T03:49:30.789Z,2.33
2022-09-10T03:51:57.985Z,2.65
2022-09-10T03:54:25.121Z,2.20
2022-09-10T03:56:52.243Z,3.22
2022-09-10T03:59:19.575Z,3.75
2022-09-10T04:01:47.308Z,3.15
2022-09-10T04:04:15.040Z,3.38
2022-09-10T04:06:43.035Z,3.42
2022-09-10T04:09:10.248Z,4.15
2022-09-10T04:11:37.400Z,3.20
2022-09-10T04:14:04.554Z,3.10
2022-09-10T04:16:32.530Z,3.50
2022-09-10T04:18:59.839Z,3.00
2022-09-10T04:21:27.425Z,3.00
2022-09-10T04:23:55.548Z,3.67
2022-09-10T04:26:22.966Z,3.10
2022-09-10T04:28:50.696Z,2.92
2022-09-10T04:31:17.951Z,3.75
2022-09-10T04:33:45.118Z,3.00
2022-09-10T04:36:15.114Z,3.63
2022-09-10T04:38:43.438Z,3.08
2022-09-10T04:41:10.598Z,2.92
2022-09-10T04:43:38.308Z,2.95
2022-09-10T04:46:05.409Z,3.00
2022-09-10T04:48:33.522Z,2.53
2022-09-10T04:51:15.716Z,3.60
2022-09-10T04:53:44.233Z,3.35
2022-09-10T04:56:11.477Z,3.25
2022-09-10T04:58:39.262Z,3.47
2022-09-10T05:01:06.576Z,5.35
2022-09-10T05:03:34.021Z,4.85
2022-09-10T05:06:01.204Z,4.20
2022-09-10T05:08:28.379Z,5.15
2022-09-10T05:10:55.626Z,4.70
2022-09-10T05:13:24.239Z,4.53
2022-09-10T05:15:51.384Z,4.05
2022-09-10T05:18:18.444Z,4.10
2022-09-10T05:20:45.676Z,3.67
2022-09-10T05:23:13.133Z,4.13
2022-09-10T05:25:40.223Z,5.18
2022-09-10T05:28:07.303Z,4.20
2022-09-10T05:30:34.436Z,3.67
2022-09-10T05:33:02.064Z,3.70
2022-09-10T05:35:30.418Z,3.85
2022-09-10T05:37:58.180Z,3.40
2022-09-10T05:40:25.943Z,3.90
2022-09-10T05:42:54.389Z,4.60
2022-09-10T05:45:21.853Z,4.00
2022-09-10T05:47:49.146Z,5.18
2022-09-10T05:50:17.279Z,4.00
2022-09-10T05:52:44.748Z,4.95
2022-09-10T05:55:12.627Z,5.90
2022-09-10T05:57:40.417Z,5.55
2022-09-10T06:00:11.074Z,4.90
2022-09-10T06:02:38.255Z,5.35
2022-09-10T06:05:05.723Z,5.10
2022-09-10T06:07:33.116Z,5.30
2022-09-10T06:10:00.499Z,5.97
2022-09-10T06:12:27.910Z,5.20
2022-09-10T06:14:55.282Z,6.40
2022-09-10T06:17:22.379Z,11.27
2022-09-10T06:19:51.878Z,6.70
2022-09-10T06:22:19.159Z,7.70
2022-09-10T06:24:49.444Z,8.38
2022-09-10T06:27:17.241Z,6.28
2022-09-10T06:29:44.560Z,5.68
2022-09-10T06:32:11.890Z,4.00
2022-09-10T06:34:39.285Z,5.45
2022-09-10T06:37:06.635Z,4.80
2022-09-10T06:39:33.946Z,5.05
2022-09-10T06:42:01.432Z,8.73
2022-09-10T06:44:29.594Z,7.40
2022-09-10T06:47:32.450Z,6.95
2022-09-10T06:49:44.030Z,8.10
2022-09-10T06:52:14.679Z,7.22
2022-09-10T06:54:42.557Z,5.32
2022-09-10T06:57:09.725Z,3.35
2022-09-10T06:59:36.968Z,3.00
2022-09-10T07:02:04.093Z,3.40
2022-09-10T07:04:31.211Z,4.60
2022-09-10T07:06:59.676Z,2.90
2022-09-10T07:09:27.626Z,2.38
2022-09-10T07:11:54.781Z,2.38
2022-09-10T07:14:21.863Z,2.40
2022-09-10T07:16:51.494Z,2.08
2022-09-10T07:19:18.878Z,2.42
2022-09-10T07:21:45.996Z,2.53
2022-09-10T07:24:14.470Z,2.50
2022-09-10T07:26:41.620Z,2.20
2022-09-10T07:29:08.680Z,2.40
2022-09-10T07:31:38.304Z,1.83
2022-09-10T07:34:05.573Z,1.50
2022-09-10T07:36:32.815Z,1.00
2022-09-10T07:39:03.754Z,1.20
2022-09-10T07:41:34.073Z,1.20
2022-09-10T07:44:01.240Z,1.13
2022-09-10T07:46:28.512Z,0.90
2022-09-10T07:48:56.942Z,1.00
2022-09-10T07:51:24.633Z,0.93
2022-09-10T07:53:55.256Z,0.65
2022-09-10T07:56:23.362Z,1.00
2022-09-10T07:58:56.083Z,0.73
2022-09-10T08:01:23.678Z,0.80
2022-09-10T08:03:51.880Z,0.60
2022-09-10T08:06:19.549Z,0.55
2022-09-10T08:08:46.610Z,0.75
2022-09-10T08:11:17.884Z,0.77
2022-09-10T08:13:46.213Z,0.50
2022-09-10T08:16:15.176Z,0.80
2022-09-10T08:18:43.713Z,0.57
2022-09-10T08:21:11.007Z,0.75
2022-09-10T08:23:39.644Z,0.70
2022-09-10T08:26:08.231Z,0.95
2022-09-10T08:28:38.531Z,0.60
2022-09-10T08:31:10.429Z,0.40
2022-09-10T08:33:40.970Z,0.35
2022-09-10T08:36:09.213Z,0.52
2022-09-10T08:38:37.231Z,0.50
2022-09-10T08:41:28.294Z,0.50
2022-09-10T08:43:57.396Z,0.50
2022-09-10T08:46:26.134Z,0.60
2022-09-10T08:48:55.777Z,0.47
2022-09-10T08:51:27.547Z,0.80
2022-09-10T08:53:57.086Z,0.70
2022-09-10T08:56:24.425Z,0.40
2022-09-10T08:58:54.464Z,0.45
2022-09-10T09:01:30.521Z,0.30
2022-09-10T09:03:58.222Z,0.60
2022-09-10T09:06:33.445Z,0.30
2022-09-10T09:09:01.707Z,0.47
2022-09-10T09:11:47.103Z,0.32
2022-09-10T09:14:33.670Z,0.60
2022-09-10T09:17:19.846Z,0.50
2022-09-10T09:20:06.098Z,0.50
2022-09-10T09:23:05.782Z,0.70
2022-09-10T09:25:32.880Z,0.60
2022-09-10T09:28:00.383Z,0.40
2022-09-10T09:30:40.317Z,0.60
2022-09-10T09:33:14.333Z,0.47
2022-09-10T09:35:49.530Z,2.45
2022-09-10T09:38:19.953Z,0.90
2022-09-10T09:40:49.153Z,1.13
2022-09-10T09:43:25.108Z,0.65
2022-09-10T09:45:53.943Z,0.70
2022-09-10T09:48:22.572Z,0.30
2022-09-10T09:50:51.156Z,0.40
2022-09-10T09:53:20.449Z,0.55
2022-09-10T09:55:51.735Z,0.43
2022-09-10T09:58:21.945Z,0.57
2022-09-10T10:00:50.029Z,0.70
2022-09-10T10:03:21.142Z,0.65
2022-09-10T10:05:48.798Z,0.40
2022-09-10T10:08:42.308Z,0.60
2022-09-10T10:11:09.933Z,0.57
2022-09-10T10:13:39.304Z,0.50
2022-09-10T10:16:28.940Z,0.85
2022-09-10T10:18:56.055Z,0.60
2022-09-10T10:21:30.589Z,2.25
2022-09-10T10:23:57.822Z,2.00
2022-09-10T10:26:33.146Z,0.47
2022-09-10T10:29:06.618Z,0.82
2022-09-10T10:31:36.147Z,0.73
2022-09-10T10:34:22.091Z,1.13
2022-09-10T10:37:07.683Z,0.93
2022-09-10T10:40:01.072Z,0.70
2022-09-10T10:42:31.349Z,0.52
2022-09-10T10:44:58.395Z,0.55
2022-09-10T10:47:35.318Z,0.50
2022-09-10T10:50:21.790Z,0.68
2022-09-10T10:53:21.540Z,0.65
2022-09-10T10:55:57.231Z,0.60
2022-09-10T10:58:36.625Z,0.60
2022-09-10T11:01:06.202Z,0.52
2022-09-10T11:03:42.904Z,0.60
2022-09-10T11:06:14.951Z,0.50
2022-09-10T11:08:42.281Z,0.55
2022-09-10T11:11:18.283Z,0.50
2022-09-10T11:13:50.577Z,0.80
2022-09-10T11:16:21.688Z,0.80
2022-09-10T11:18:52.549Z,0.73
2022-09-10T11:21:25.611Z,0.75
2022-09-10T11:23:52.732Z,0.55
2022-09-10T11:26:22.098Z,0.82
2022-09-10T11:29:02.830Z,0.82
2022-09-10T11:31:42.742Z,0.55
2022-09-10T11:34:09.800Z,0.70
2022-09-10T11:36:37.239Z,0.55
2022-09-10T11:39:04.321Z,0.55
2022-09-10T11:41:32.821Z,0.60
2022-09-10T11:44:12.735Z,0.43
2022-09-10T11:46:41.644Z,0.32
2022-09-10T11:49:16.149Z,0.30
2022-09-10T11:51:44.273Z,0.13
2022-09-10T11:54:13.962Z,0.20
2022-09-10T11:57:01.896Z,0.70
2022-09-10T11:59:28.993Z,0.30
2022-09-10T12:02:25.759Z,0.20
2022-09-10T12:04:55.701Z,1.80
2022-09-10T12:07:41.743Z,2.60
2022-09-10T12:10:14.051Z,0.10
2022-09-10T12:12:46.337Z,0.10
2022-09-10T12:15:16.274Z,0.10
2022-09-10T12:17:44.506Z,0.10
2022-09-10T12:20:16.362Z,0.60
2022-09-10T12:22:43.960Z,0.10
2022-09-10T12:25:18.462Z,0.10
2022-09-10T12:27:49.135Z,0.10
2022-09-10T12:30:25.367Z,0.15
2022-09-10T12:32:57.762Z,0.10
2022-09-10T12:35:38.035Z,0.00
2022-09-10T12:38:23.986Z,0.10
2022-09-10T12:40:51.978Z,0.10
2022-09-10T12:43:45.302Z,0.00
2022-09-10T12:46:16.343Z,0.10
2022-09-10T12:48:45.301Z,0.40
2022-09-10T12:51:18.608Z,0.03
2022-09-10T12:53:48.510Z,0.10
2022-09-10T12:56:15.916Z,0.10
2022-09-10T12:58:49.335Z,0.05
2022-09-10T13:01:23.947Z,0.10
2022-09-10T13:03:56.109Z,0.00
2022-09-10T13:06:40.581Z,0.03
2022-09-10T13:09:19.854Z,0.00
2022-09-10T13:11:49.684Z,0.00
2022-09-10T13:14:22.903Z,0.00
2022-09-10T13:16:52.847Z,0.00
2022-09-10T13:19:19.952Z,0.00
2022-09-10T13:21:48.096Z,0.10
2022-09-10T13:24:34.484Z,0.10
2022-09-10T13:27:04.781Z,0.10
2022-09-10T13:29:40.496Z,0.00
2022-09-10T13:32:14.215Z,0.20
2022-09-10T13:34:48.141Z,0.10
2022-09-10T13:37:34.278Z,0.20
2022-09-10T13:40:20.251Z,0.10
2022-09-10T13:42:58.153Z,0.20
2022-09-10T13:45:31.313Z,0.10
2022-09-10T13:48:19.900Z,0.20
2022-09-10T13:50:50.245Z,0.20
2022-09-10T13:53:19.694Z,0.10
2022-09-10T13:55:56.338Z,0.10
2022-09-10T13:58:28.418Z,0.20
2022-09-10T14:00:57.334Z,0.20
2022-09-10T14:03:47.270Z,0.20
2022-09-10T14:06:21.620Z,0.10
2022-09-10T14:09:04.631Z,0.20
2022-09-10T14:11:33.776Z,0.30
2022-09-10T14:14:04.284Z,0.40
2022-09-10T14:16:35.928Z,0.10
2022-09-10T14:19:08.021Z,0.10
2022-09-10T14:21:35.505Z,0.10
2022-09-10T14:24:03.312Z,0.20
2022-09-10T14:26:31.380Z,0.10
2022-09-10T14:29:03.502Z,0.17
2022-09-10T14:31:33.668Z,0.10
2022-09-10T14:34:20.706Z,0.10
2022-09-10T14:36:48.432Z,0.10
2022-09-10T14:39:15.512Z,0.17
2022-09-10T14:41:42.700Z,0.10
2022-09-10T14:44:22.334Z,0.10
2022-09-10T14:46:59.844Z,0.10
2022-09-10T14:49:32.200Z,0.20
2022-09-10T14:51:59.966Z,0.10
2022-09-10T14:54:27.289Z,0.30
2022-09-10T14:56:56.020Z,0.20
2022-09-10T14:59:32.420Z,0.25
2022-09-10T15:02:03.362Z,0.10
2022-09-10T15:04:31.702Z,0.30
2022-09-10T15:06:59.823Z,0.70
2022-09-10T15:09:28.211Z,0.73
2022-09-10T15:11:55.404Z,0.55
2022-09-10T15:14:22.567Z,0.55
2022-09-10T15:16:52.210Z,0.50
2022-09-10T15:19:23.377Z,0.22
2022-09-10T15:21:50.518Z,0.30
2022-09-10T15:24:19.253Z,0.35
2022-09-10T15:26:46.968Z,0.20
2022-09-10T15:29:14.493Z,0.17
2022-09-10T15:31:42.357Z,0.30
2022-09-10T15:34:12.235Z,0.30
2022-09-10T15:36:40.081Z,0.55
2022-09-10T15:39:07.762Z,0.30
2022-09-10T15:41:35.006Z,0.50
2022-09-10T15:44:03.314Z,0.35
2022-09-10T15:46:30.541Z,0.40
2022-09-10T15:49:04.091Z,0.50
2022-09-10T15:51:31.454Z,0.30
2022-09-10T15:54:01.829Z,0.50
2022-09-10T15:56:32.648Z,0.55
2022-09-10T15:58:59.833Z,0.47
2022-09-10T16:01:28.944Z,0.40
2022-09-10T16:03:57.546Z,0.55
2022-09-10T16:06:27.363Z,0.88
2022-09-10T16:09:01.965Z,0.52
2022-09-10T16:11:33.401Z,0.40
2022-09-10T16:14:04.705Z,0.40
2022-09-10T16:16:32.321Z,0.75
2022-09-10T16:19:00.425Z,0.47
2022-09-10T16:21:28.770Z,0.52
2022-09-10T16:23:56.825Z,0.60
2022-09-10T16:26:39.152Z,0.82
2022-09-10T16:29:07.370Z,0.60
2022-09-10T16:31:35.584Z,0.55
2022-09-10T16:34:04.644Z,1.33
2022-09-10T16:36:36.996Z,1.77
2022-09-10T16:39:05.272Z,1.00
2022-09-10T16:41:35.265Z,0.80
2022-09-10T16:44:02.417Z,0.77
2022-09-10T16:46:30.179Z,0.77
2022-09-10T16:48:59.187Z,1.25
2022-09-10T16:51:28.746Z,1.60
2022-09-10T16:53:56.937Z,0.70
2022-09-10T16:56:24.709Z,1.20
2022-09-10T16:58:51.996Z,0.63
2022-09-10T17:01:20.738Z,0.55
2022-09-10T17:03:54.965Z,0.80
2022-09-10T17:06:24.611Z,0.70
2022-09-10T17:08:52.517Z,0.82
2022-09-10T17:11:19.877Z,0.50
2022-09-10T17:13:47.323Z,0.80
2022-09-10T17:16:23.911Z,0.60
2022-09-10T17:18:58.107Z,0.60
2022-09-10T17:21:26.057Z,0.57
2022-09-10T17:23:53.975Z,0.52
2022-09-10T17:26:21.276Z,0.80
2022-09-10T17:28:55.824Z,0.73
2022-09-10T17:31:23.292Z,0.70
2022-09-10T17:33:50.811Z,0.80
2022-09-10T17:36:17.960Z,0.90
2022-09-10T17:38:46.041Z,1.02
2022-09-10T17:41:14.559Z,0.80
2022-09-10T17:43:42.780Z,0.90
2022-09-10T17:46:11.355Z,1.30
2022-09-10T17:48:38.943Z,0.93
2022-09-10T17:51:06.603Z,1.30
2022-09-10T17:53:34.153Z,1.50
2022-09-10T17:56:05.069Z,1.80
2022-09-10T17:58:35.687Z,1.98
2022-09-10T18:01:04.517Z,1.58
2022-09-10T18:03:31.730Z,1.80
2022-09-10T18:06:06.114Z,1.63
2022-09-10T18:08:34.177Z,1.80
2022-09-10T18:11:08.314Z,1.88
2022-09-10T18:13:36.522Z,2.40
2022-09-10T18:16:07.407Z,2.80
2022-09-10T18:18:37.626Z,2.40
2022-09-10T18:21:12.033Z,2.20
2022-09-10T18:23:39.324Z,2.35
2022-09-10T18:26:13.372Z,1.90
2022-09-10T18:28:40.479Z,2.53
2022-09-10T18:31:07.756Z,3.00
2022-09-10T18:33:38.944Z,2.80
2022-09-10T18:36:13.595Z,2.90
2022-09-10T18:38:41.163Z,5.32
2022-09-10T18:41:20.869Z,4.90
2022-09-10T18:43:48.431Z,4.13
2022-09-10T18:46:15.596Z,3.17
2022-09-10T18:48:44.045Z,3.20
2022-09-10T18:51:12.846Z,3.17
2022-09-10T18:53:40.582Z,3.13
2022-09-10T18:56:09.883Z,3.10
2022-09-10T18:58:37.678Z,3.40
2022-09-10T19:01:13.931Z,3.42
2022-09-10T19:03:42.739Z,3.03
2022-09-10T19:06:15.148Z,3.60
2022-09-10T19:08:47.700Z,8.63
2022-09-10T19:11:17.497Z,4.90
2022-09-10T19:13:48.623Z,4.47
2022-09-10T19:16:15.749Z,7.63
2022-09-10T19:18:43.844Z,3.97
2022-09-10T19:21:11.275Z,3.42
2022-09-10T19:23:39.664Z,3.33
2022-09-10T19:26:09.893Z,3.53
2022-09-10T19:28:39.593Z,3.90
2022-09-10T19:31:07.706Z,3.92
2022-09-10T19:33:36.536Z,3.65
2022-09-10T19:36:10.910Z,3.78
2022-09-10T19:38:38.941Z,3.75
2022-09-10T19:41:07.752Z,3.70
2022-09-10T19:43:36.295Z,4.40
2022-09-10T19:46:04.374Z,3.90
2022-09-10T19:48:31.575Z,3.80
2022-09-10T19:50:59.119Z,3.70
2022-09-10T19:53:26.772Z,3.70
2022-09-10T19:55:54.190Z,3.35
2022-09-10T19:58:21.322Z,6.32
2022-09-10T20:00:48.421Z,4.85
2022-09-10T20:03:15.953Z,4.38
2022-09-10T20:05:43.069Z,4.78
2022-09-10T20:08:10.184Z,4.65
2022-09-10T20:10:38.228Z,4.28
2022-09-10T20:13:05.698Z,4.63
2022-09-10T20:15:32.929Z,4.03
2022-09-10T20:18:00.103Z,3.90
2022-09-10T20:20:27.227Z,4.03
2022-09-10T20:23:00.277Z,3.80
2022-09-10T20:25:28.667Z,3.80
2022-09-10T20:27:55.722Z,3.53
2022-09-10T20:30:22.809Z,3.80
2022-09-10T20:32:50.589Z,4.15
2022-09-10T20:35:17.797Z,3.50
2022-09-10T20:37:47.830Z,3.88
2022-09-10T20:40:18.310Z,3.85
2022-09-10T20:42:45.615Z,3.97
2022-09-10T20:45:13.189Z,3.60
2022-09-10T20:47:43.142Z,15.80
2022-09-10T20:50:13.985Z,9.18
2022-09-10T20:52:43.593Z,5.93
2022-09-10T20:55:10.759Z,4.85
2022-09-10T20:57:37.855Z,5.10
2022-09-10T21:00:06.654Z,4.10
2022-09-10T21:02:33.770Z,4.25
2022-09-10T21:05:00.919Z,3.72
2022-09-10T21:07:28.457Z,4.22
2022-09-10T21:09:55.539Z,4.35
2022-09-10T21:12:22.704Z,3.95
2022-09-10T21:14:50.239Z,4.55
2022-09-10T21:17:17.339Z,4.35
2022-09-10T21:19:44.531Z,4.30
2022-09-10T21:22:11.907Z,4.55
2022-09-10T21:24:39.719Z,3.75
2022-09-10T21:27:06.818Z,5.00
2022-09-10T21:29:33.992Z,4.40
2022-09-10T21:32:01.285Z,4.45
2022-09-10T21:34:28.555Z,4.28
2022-09-10T21:36:55.677Z,3.75
2022-09-10T21:39:22.832Z,3.80
2022-09-10T21:41:50.732Z,4.20
2022-09-10T21:44:19.798Z,4.35
2022-09-10T21:46:47.726Z,3.53
2022-09-10T21:49:15.082Z,4.50
2022-09-10T21:51:42.330Z,4.05
2022-09-10T21:54:14.192Z,3.90
2022-09-10T21:56:41.304Z,4.80
2022-09-10T21:59:10.817Z,4.20
2022-09-10T22:01:39.178Z,4.10
2022-09-10T22:04:06.363Z,4.70
2022-09-10T22:06:33.835Z,4.38
2022-09-10T22:09:02.558Z,4.45
2022-09-10T22:11:31.349Z,4.57
2022-09-10T22:14:01.030Z,4.68
2022-09-10T22:16:29.024Z,4.55
2022-09-10T22:18:57.022Z,5.03
2022-09-10T22:21:24.963Z,6.60
2022-09-10T22:23:52.277Z,6.13
2022-09-10T22:26:24.248Z,5.57
2022-09-10T22:28:54.118Z,4.97
2022-09-10T22:31:25.249Z,4.10
2022-09-10T22:33:53.658Z,5.25
2022-09-10T22:36:23.899Z,5.75
2022-09-10T22:38:52.135Z,6.18
2022-09-10T22:41:19.837Z,5.35
2022-09-10T22:43:46.981Z,5.45
2022-09-10T22:46:14.142Z,6.10
2022-09-10T22:48:42.640Z,4.90
2022-09-10T22:51:23.618Z,3.78
2022-09-10T22:53:51.401Z,3.63
2022-09-10T22:56:19.144Z,4.45
2022-09-10T22:58:46.625Z,4.75
2022-09-10T23:01:15.551Z,4.20
2022-09-10T23:03:44.065Z,4.85
2022-09-10T23:06:12.912Z,4.85
2022-09-10T23:08:40.628Z,4.63
2022-09-10T23:11:16.215Z,6.88
2022-09-10T23:13:44.416Z,5.60
2022-09-10T23:16:21.913Z,4.75
2022-09-10T23:18:53.232Z,4.20
2022-09-10T23:21:20.497Z,4.25
2022-09-10T23:23:48.401Z,3.72
2022-09-10T23:26:15.835Z,3.80
2022-09-10T23:28:43.030Z,3.88
2022-09-10T23:31:13.477Z,3.88
2022-09-10T23:33:44.730Z,4.53
2022-09-10T23:36:13.273Z,4.05
2022-09-10T23:38:43.915Z,4.57
2022-09-10T23:41:12.148Z,4.28
2022-09-10T23:43:40.437Z,4.30
2022-09-10T23:46:08.963Z,3.47
2022-09-10T23:48:36.722Z,4.00
2022-09-10T23:51:04.576Z,3.88
2022-09-10T23:53:32.393Z,3.97
2022-09-10T23:56:06.360Z,4.28
2022-09-10T23:58:33.625Z,3.97
